sensor_id;sensor_type;location;lat;lon;timestamp;P1;durP1;ratioP1;P2;durP2;ratioP2
75550;SDS011;65071;53.082;18.218;2023-09-19T00:02:03;17.00;;;11.80;;
75550;SDS011;65071;53.082;18.218;2023-09-19T00:04:31;17.50;;;12.60;;
75550;SDS011;65071;53.082;18.218;2023-09-19T00:06:59;17.00;;;11.50;;
75550;SDS011;65071;53.082;18.218;2023-09-19T00:09:26;14.00;;;11.20;;
75550;SDS011;65071;53.082;18.218;2023-09-19T00:11:53;14.80;;;12.20;;
75550;SDS011;65071;53.082;18.218;2023-09-19T00:14:20;15.30;;;12.00;;
75550;SDS011;65071;53.082;18.218;2023-09-19T00:16:50;16.60;;;12.00;;
75550;SDS011;65071;53.082;18.218;2023-09-19T00:19:17;15.00;;;11.90;;
75550;SDS011;65071;53.082;18.218;2023-09-19T00:21:43;19.00;;;13.40;;
75550;SDS011;65071;53.082;18.218;2023-09-19T00:24:09;15.40;;;12.50;;
75550;SDS011;65071;53.082;18.218;2023-09-19T00:26:36;16.50;;;12.50;;
75550;SDS011;65071;53.082;18.218;2023-09-19T00:29:03;15.20;;;12.40;;
75550;SDS011;65071;53.082;18.218;2023-09-19T00:31:30;18.00;;;12.10;;
75550;SDS011;65071;53.082;18.218;2023-09-19T00:33:56;16.80;;;12.40;;
75550;SDS011;65071;53.082;18.218;2023-09-19T00:36:28;14.70;;;12.30;;
75550;SDS011;65071;53.082;18.218;2023-09-19T00:38:55;18.70;;;12.70;;
75550;SDS011;65071;53.082;18.218;2023-09-19T00:41:21;17.10;;;11.80;;
75550;SDS011;65071;53.082;18.218;2023-09-19T00:43:47;14.40;;;12.00;;
75550;SDS011;65071;53.082;18.218;2023-09-19T00:46:16;15.40;;;12.00;;
75550;SDS011;65071;53.082;18.218;2023-09-19T00:48:43;16.60;;;11.80;;
75550;SDS011;65071;53.082;18.218;2023-09-19T00:51:09;15.00;;;11.80;;
75550;SDS011;65071;53.082;18.218;2023-09-19T00:53:37;19.50;;;12.90;;
75550;SDS011;65071;53.082;18.218;2023-09-19T00:56:05;17.80;;;12.60;;
75550;SDS011;65071;53.082;18.218;2023-09-19T00:58:33;15.70;;;12.00;;
75550;SDS011;65071;53.082;18.218;2023-09-19T01:01:01;15.50;;;12.40;;
75550;SDS011;65071;53.082;18.218;2023-09-19T01:03:30;14.20;;;11.10;;
75550;SDS011;65071;53.082;18.218;2023-09-19T01:05:56;14.60;;;12.00;;
75550;SDS011;65071;53.082;18.218;2023-09-19T01:08:23;13.10;;;9.90;;
75550;SDS011;65071;53.082;18.218;2023-09-19T01:10:59;12.30;;;9.60;;
75550;SDS011;65071;53.082;18.218;2023-09-19T01:13:41;12.40;;;8.80;;
75550;SDS011;65071;53.082;18.218;2023-09-19T01:30:29;7.70;;;4.80;;
75550;SDS011;65071;53.082;18.218;2023-09-19T01:32:59;6.20;;;5.00;;
75550;SDS011;65071;53.082;18.218;2023-09-19T01:35:26;7.90;;;5.10;;
75550;SDS011;65071;53.082;18.218;2023-09-19T01:37:52;6.00;;;4.60;;
75550;SDS011;65071;53.082;18.218;2023-09-19T01:40:20;7.10;;;5.60;;
75550;SDS011;65071;53.082;18.218;2023-09-19T01:45:55;8.40;;;4.90;;
75550;SDS011;65071;53.082;18.218;2023-09-19T01:53:38;5.00;;;4.30;;
75550;SDS011;65071;53.082;18.218;2023-09-19T01:56:12;6.20;;;4.30;;
75550;SDS011;65071;53.082;18.218;2023-09-19T01:58:44;6.60;;;4.80;;
75550;SDS011;65071;53.082;18.218;2023-09-19T02:01:16;6.10;;;4.50;;
75550;SDS011;65071;53.082;18.218;2023-09-19T02:03:47;5.50;;;3.90;;
75550;SDS011;65071;53.082;18.218;2023-09-19T02:06:15;7.60;;;4.10;;
75550;SDS011;65071;53.082;18.218;2023-09-19T02:08:41;5.30;;;3.40;;
75550;SDS011;65071;53.082;18.218;2023-09-19T02:11:08;6.20;;;3.70;;
75550;SDS011;65071;53.082;18.218;2023-09-19T02:13:34;6.10;;;3.40;;
75550;SDS011;65071;53.082;18.218;2023-09-19T02:16:01;4.70;;;3.60;;
75550;SDS011;65071;53.082;18.218;2023-09-19T02:18:30;5.60;;;3.80;;
75550;SDS011;65071;53.082;18.218;2023-09-19T02:20:56;5.10;;;3.70;;
75550;SDS011;65071;53.082;18.218;2023-09-19T02:23:24;5.30;;;3.50;;
75550;SDS011;65071;53.082;18.218;2023-09-19T02:25:55;3.90;;;3.30;;
75550;SDS011;65071;53.082;18.218;2023-09-19T02:28:24;4.20;;;3.10;;
75550;SDS011;65071;53.082;18.218;2023-09-19T02:30:51;3.70;;;3.20;;
75550;SDS011;65071;53.082;18.218;2023-09-19T02:33:17;4.70;;;3.30;;
75550;SDS011;65071;53.082;18.218;2023-09-19T02:35:43;5.30;;;3.30;;
75550;SDS011;65071;53.082;18.218;2023-09-19T02:38:10;5.10;;;3.10;;
75550;SDS011;65071;53.082;18.218;2023-09-19T02:40:38;5.60;;;3.10;;
75550;SDS011;65071;53.082;18.218;2023-09-19T02:43:04;4.20;;;2.80;;
75550;SDS011;65071;53.082;18.218;2023-09-19T02:45:31;7.10;;;2.90;;
75550;SDS011;65071;53.082;18.218;2023-09-19T02:47:58;3.60;;;3.00;;
75550;SDS011;65071;53.082;18.218;2023-09-19T02:50:24;5.30;;;3.10;;
75550;SDS011;65071;53.082;18.218;2023-09-19T02:52:51;4.20;;;2.70;;
75550;SDS011;65071;53.082;18.218;2023-09-19T02:55:18;4.80;;;2.90;;
75550;SDS011;65071;53.082;18.218;2023-09-19T02:57:46;4.60;;;2.80;;
75550;SDS011;65071;53.082;18.218;2023-09-19T03:00:13;5.00;;;3.40;;
75550;SDS011;65071;53.082;18.218;2023-09-19T03:02:40;5.30;;;3.50;;
75550;SDS011;65071;53.082;18.218;2023-09-19T03:05:07;4.50;;;3.60;;
75550;SDS011;65071;53.082;18.218;2023-09-19T03:07:34;6.50;;;4.00;;
75550;SDS011;65071;53.082;18.218;2023-09-19T03:10:00;4.40;;;3.40;;
75550;SDS011;65071;53.082;18.218;2023-09-19T03:12:26;6.10;;;3.60;;
75550;SDS011;65071;53.082;18.218;2023-09-19T03:14:53;8.80;;;4.70;;
75550;SDS011;65071;53.082;18.218;2023-09-19T03:17:20;7.50;;;4.40;;
75550;SDS011;65071;53.082;18.218;2023-09-19T03:19:46;8.10;;;4.70;;
75550;SDS011;65071;53.082;18.218;2023-09-19T03:22:14;6.00;;;4.30;;
75550;SDS011;65071;53.082;18.218;2023-09-19T03:24:41;7.10;;;4.60;;
75550;SDS011;65071;53.082;18.218;2023-09-19T03:27:09;9.40;;;4.10;;
75550;SDS011;65071;53.082;18.218;2023-09-19T03:29:36;8.00;;;4.90;;
75550;SDS011;65071;53.082;18.218;2023-09-19T03:32:04;5.90;;;3.90;;
75550;SDS011;65071;53.082;18.218;2023-09-19T03:34:31;7.60;;;4.70;;
75550;SDS011;65071;53.082;18.218;2023-09-19T03:36:57;6.30;;;3.80;;
75550;SDS011;65071;53.082;18.218;2023-09-19T03:39:24;6.10;;;3.80;;
75550;SDS011;65071;53.082;18.218;2023-09-19T03:41:50;7.30;;;4.00;;
75550;SDS011;65071;53.082;18.218;2023-09-19T03:44:17;6.60;;;4.00;;
75550;SDS011;65071;53.082;18.218;2023-09-19T03:46:44;6.30;;;4.00;;
75550;SDS011;65071;53.082;18.218;2023-09-19T03:49:10;5.60;;;3.80;;
75550;SDS011;65071;53.082;18.218;2023-09-19T03:51:37;7.50;;;4.20;;
75550;SDS011;65071;53.082;18.218;2023-09-19T03:54:03;6.60;;;3.50;;
75550;SDS011;65071;53.082;18.218;2023-09-19T03:56:30;6.70;;;3.90;;
75550;SDS011;65071;53.082;18.218;2023-09-19T03:58:57;7.10;;;4.10;;
75550;SDS011;65071;53.082;18.218;2023-09-19T04:01:23;5.40;;;3.80;;
75550;SDS011;65071;53.082;18.218;2023-09-19T04:03:50;8.00;;;3.50;;
75550;SDS011;65071;53.082;18.218;2023-09-19T04:06:17;5.10;;;3.80;;
75550;SDS011;65071;53.082;18.218;2023-09-19T04:08:44;7.70;;;3.80;;
75550;SDS011;65071;53.082;18.218;2023-09-19T04:11:12;6.40;;;4.00;;
75550;SDS011;65071;53.082;18.218;2023-09-19T04:13:39;6.00;;;3.60;;
75550;SDS011;65071;53.082;18.218;2023-09-19T04:16:05;8.10;;;3.70;;
75550;SDS011;65071;53.082;18.218;2023-09-19T04:18:33;8.20;;;3.80;;
75550;SDS011;65071;53.082;18.218;2023-09-19T04:21:04;5.80;;;3.60;;
75550;SDS011;65071;53.082;18.218;2023-09-19T04:23:32;7.40;;;3.70;;
75550;SDS011;65071;53.082;18.218;2023-09-19T04:25:58;4.90;;;3.30;;
75550;SDS011;65071;53.082;18.218;2023-09-19T04:28:25;5.40;;;3.60;;
75550;SDS011;65071;53.082;18.218;2023-09-19T04:30:53;5.60;;;3.60;;
75550;SDS011;65071;53.082;18.218;2023-09-19T04:33:21;7.40;;;3.80;;
75550;SDS011;65071;53.082;18.218;2023-09-19T04:35:51;6.30;;;3.70;;
75550;SDS011;65071;53.082;18.218;2023-09-19T04:38:18;6.00;;;3.60;;
75550;SDS011;65071;53.082;18.218;2023-09-19T04:40:46;6.90;;;3.60;;
75550;SDS011;65071;53.082;18.218;2023-09-19T04:43:13;5.80;;;3.90;;
75550;SDS011;65071;53.082;18.218;2023-09-19T04:45:39;6.00;;;3.20;;
75550;SDS011;65071;53.082;18.218;2023-09-19T04:48:08;5.20;;;3.50;;
75550;SDS011;65071;53.082;18.218;2023-09-19T04:50:35;5.60;;;4.00;;
75550;SDS011;65071;53.082;18.218;2023-09-19T04:53:03;7.70;;;4.10;;
75550;SDS011;65071;53.082;18.218;2023-09-19T04:55:30;6.50;;;3.40;;
75550;SDS011;65071;53.082;18.218;2023-09-19T04:57:58;5.20;;;3.50;;
75550;SDS011;65071;53.082;18.218;2023-09-19T05:00:25;6.50;;;3.70;;
75550;SDS011;65071;53.082;18.218;2023-09-19T05:02:56;9.10;;;5.00;;
75550;SDS011;65071;53.082;18.218;2023-09-19T05:05:23;6.10;;;3.90;;
75550;SDS011;65071;53.082;18.218;2023-09-19T05:07:51;6.70;;;3.70;;
75550;SDS011;65071;53.082;18.218;2023-09-19T05:10:20;6.20;;;3.50;;
75550;SDS011;65071;53.082;18.218;2023-09-19T05:12:46;8.90;;;4.10;;
75550;SDS011;65071;53.082;18.218;2023-09-19T05:15:13;7.00;;;3.40;;
75550;SDS011;65071;53.082;18.218;2023-09-19T05:17:49;7.90;;;3.50;;
75550;SDS011;65071;53.082;18.218;2023-09-19T05:20:17;5.10;;;3.20;;
75550;SDS011;65071;53.082;18.218;2023-09-19T05:22:59;6.60;;;3.50;;
75550;SDS011;65071;53.082;18.218;2023-09-19T05:25:28;5.80;;;3.70;;
75550;SDS011;65071;53.082;18.218;2023-09-19T05:27:56;4.30;;;3.30;;
75550;SDS011;65071;53.082;18.218;2023-09-19T05:30:23;6.50;;;3.30;;
75550;SDS011;65071;53.082;18.218;2023-09-19T05:32:51;4.70;;;3.30;;
75550;SDS011;65071;53.082;18.218;2023-09-19T05:35:17;5.10;;;3.10;;
75550;SDS011;65071;53.082;18.218;2023-09-19T05:37:44;5.20;;;3.00;;
75550;SDS011;65071;53.082;18.218;2023-09-19T05:40:10;7.50;;;3.00;;
75550;SDS011;65071;53.082;18.218;2023-09-19T05:42:38;4.00;;;3.00;;
75550;SDS011;65071;53.082;18.218;2023-09-19T05:45:05;6.90;;;3.00;;
75550;SDS011;65071;53.082;18.218;2023-09-19T05:47:32;5.00;;;2.70;;
75550;SDS011;65071;53.082;18.218;2023-09-19T05:49:59;5.70;;;3.20;;
75550;SDS011;65071;53.082;18.218;2023-09-19T05:52:25;4.60;;;2.70;;
75550;SDS011;65071;53.082;18.218;2023-09-19T05:54:52;5.10;;;3.10;;
75550;SDS011;65071;53.082;18.218;2023-09-19T05:57:18;4.30;;;2.80;;
75550;SDS011;65071;53.082;18.218;2023-09-19T05:59:45;4.40;;;2.60;;
75550;SDS011;65071;53.082;18.218;2023-09-19T06:02:12;5.20;;;2.70;;
75550;SDS011;65071;53.082;18.218;2023-09-19T06:04:38;4.30;;;2.70;;
75550;SDS011;65071;53.082;18.218;2023-09-19T06:07:06;4.60;;;2.50;;
75550;SDS011;65071;53.082;18.218;2023-09-19T06:09:33;3.90;;;2.90;;
75550;SDS011;65071;53.082;18.218;2023-09-19T06:12:00;4.90;;;2.90;;
75550;SDS011;65071;53.082;18.218;2023-09-19T06:14:30;2.60;;;2.10;;
75550;SDS011;65071;53.082;18.218;2023-09-19T06:16:57;3.10;;;2.20;;
75550;SDS011;65071;53.082;18.218;2023-09-19T06:19:23;2.80;;;2.10;;
75550;SDS011;65071;53.082;18.218;2023-09-19T06:24:20;4.10;;;2.20;;
75550;SDS011;65071;53.082;18.218;2023-09-19T06:26:47;4.30;;;2.40;;
75550;SDS011;65071;53.082;18.218;2023-09-19T06:29:13;4.70;;;2.60;;
75550;SDS011;65071;53.082;18.218;2023-09-19T06:31:40;3.50;;;2.90;;
75550;SDS011;65071;53.082;18.218;2023-09-19T06:34:08;4.90;;;3.00;;
75550;SDS011;65071;53.082;18.218;2023-09-19T06:36:34;4.60;;;2.90;;
75550;SDS011;65071;53.082;18.218;2023-09-19T06:39:01;4.10;;;3.10;;
75550;SDS011;65071;53.082;18.218;2023-09-19T06:41:30;3.70;;;2.80;;
75550;SDS011;65071;53.082;18.218;2023-09-19T06:43:56;4.00;;;2.90;;
75550;SDS011;65071;53.082;18.218;2023-09-19T06:46:24;4.20;;;2.80;;
75550;SDS011;65071;53.082;18.218;2023-09-19T06:48:51;4.50;;;3.20;;
75550;SDS011;65071;53.082;18.218;2023-09-19T06:51:18;3.90;;;2.50;;
75550;SDS011;65071;53.082;18.218;2023-09-19T06:53:44;4.40;;;2.80;;
75550;SDS011;65071;53.082;18.218;2023-09-19T06:56:11;4.50;;;3.50;;
75550;SDS011;65071;53.082;18.218;2023-09-19T06:58:37;4.00;;;3.00;;
75550;SDS011;65071;53.082;18.218;2023-09-19T07:01:04;5.30;;;3.00;;
75550;SDS011;65071;53.082;18.218;2023-09-19T07:03:31;4.50;;;3.40;;
75550;SDS011;65071;53.082;18.218;2023-09-19T07:05:59;3.40;;;3.00;;
75550;SDS011;65071;53.082;18.218;2023-09-19T07:08:26;6.40;;;3.40;;
75550;SDS011;65071;53.082;18.218;2023-09-19T07:10:52;4.20;;;3.30;;
75550;SDS011;65071;53.082;18.218;2023-09-19T07:13:19;5.80;;;4.30;;
75550;SDS011;65071;53.082;18.218;2023-09-19T07:15:46;4.50;;;3.80;;
75550;SDS011;65071;53.082;18.218;2023-09-19T07:18:13;4.50;;;3.90;;
75550;SDS011;65071;53.082;18.218;2023-09-19T07:20:40;5.30;;;3.60;;
75550;SDS011;65071;53.082;18.218;2023-09-19T07:23:11;6.40;;;3.60;;
75550;SDS011;65071;53.082;18.218;2023-09-19T07:25:41;5.20;;;3.70;;
75550;SDS011;65071;53.082;18.218;2023-09-19T07:28:07;4.30;;;3.70;;
75550;SDS011;65071;53.082;18.218;2023-09-19T07:30:35;4.80;;;3.50;;
75550;SDS011;65071;53.082;18.218;2023-09-19T07:33:03;5.30;;;3.20;;
75550;SDS011;65071;53.082;18.218;2023-09-19T07:35:31;3.70;;;3.30;;
75550;SDS011;65071;53.082;18.218;2023-09-19T07:37:58;4.80;;;3.20;;
75550;SDS011;65071;53.082;18.218;2023-09-19T07:40:27;6.20;;;3.40;;
75550;SDS011;65071;53.082;18.218;2023-09-19T07:42:55;5.50;;;3.60;;
75550;SDS011;65071;53.082;18.218;2023-09-19T07:45:21;4.30;;;3.30;;
75550;SDS011;65071;53.082;18.218;2023-09-19T07:47:49;4.20;;;3.40;;
75550;SDS011;65071;53.082;18.218;2023-09-19T07:50:17;4.10;;;3.50;;
75550;SDS011;65071;53.082;18.218;2023-09-19T07:52:47;5.00;;;3.90;;
75550;SDS011;65071;53.082;18.218;2023-09-19T07:55:16;5.00;;;3.80;;
75550;SDS011;65071;53.082;18.218;2023-09-19T07:57:43;4.80;;;3.70;;
75550;SDS011;65071;53.082;18.218;2023-09-19T08:00:10;5.70;;;3.60;;
75550;SDS011;65071;53.082;18.218;2023-09-19T08:02:38;5.50;;;3.80;;
75550;SDS011;65071;53.082;18.218;2023-09-19T08:05:06;4.20;;;3.80;;
75550;SDS011;65071;53.082;18.218;2023-09-19T08:07:36;4.40;;;3.20;;
75550;SDS011;65071;53.082;18.218;2023-09-19T08:10:04;4.30;;;3.90;;
75550;SDS011;65071;53.082;18.218;2023-09-19T08:12:34;5.50;;;3.70;;
75550;SDS011;65071;53.082;18.218;2023-09-19T08:15:04;7.00;;;3.30;;
75550;SDS011;65071;53.082;18.218;2023-09-19T08:17:35;4.20;;;3.30;;
75550;SDS011;65071;53.082;18.218;2023-09-19T08:20:01;7.00;;;3.70;;
75550;SDS011;65071;53.082;18.218;2023-09-19T08:22:31;6.10;;;3.70;;
75550;SDS011;65071;53.082;18.218;2023-09-19T08:25:00;4.20;;;3.60;;
75550;SDS011;65071;53.082;18.218;2023-09-19T08:27:27;5.40;;;3.40;;
75550;SDS011;65071;53.082;18.218;2023-09-19T08:29:54;5.50;;;3.90;;
75550;SDS011;65071;53.082;18.218;2023-09-19T08:32:20;4.70;;;3.80;;
75550;SDS011;65071;53.082;18.218;2023-09-19T08:34:50;4.80;;;3.70;;
75550;SDS011;65071;53.082;18.218;2023-09-19T08:37:16;4.70;;;4.20;;
75550;SDS011;65071;53.082;18.218;2023-09-19T08:39:43;5.40;;;4.60;;
75550;SDS011;65071;53.082;18.218;2023-09-19T08:42:10;4.10;;;3.20;;
75550;SDS011;65071;53.082;18.218;2023-09-19T08:44:38;5.60;;;4.20;;
75550;SDS011;65071;53.082;18.218;2023-09-19T08:47:10;4.10;;;3.70;;
75550;SDS011;65071;53.082;18.218;2023-09-19T08:49:53;6.90;;;4.40;;
75550;SDS011;65071;53.082;18.218;2023-09-19T08:52:42;4.30;;;3.60;;
75550;SDS011;65071;53.082;18.218;2023-09-19T08:55:11;5.00;;;4.00;;
75550;SDS011;65071;53.082;18.218;2023-09-19T08:57:39;5.00;;;3.50;;
75550;SDS011;65071;53.082;18.218;2023-09-19T09:00:09;6.00;;;4.00;;
75550;SDS011;65071;53.082;18.218;2023-09-19T09:02:38;4.70;;;3.70;;
75550;SDS011;65071;53.082;18.218;2023-09-19T09:05:08;4.80;;;3.50;;
75550;SDS011;65071;53.082;18.218;2023-09-19T09:07:37;6.80;;;3.50;;
75550;SDS011;65071;53.082;18.218;2023-09-19T09:10:05;5.20;;;3.50;;
75550;SDS011;65071;53.082;18.218;2023-09-19T09:12:35;5.60;;;3.20;;
75550;SDS011;65071;53.082;18.218;2023-09-19T09:15:07;4.80;;;3.30;;
75550;SDS011;65071;53.082;18.218;2023-09-19T09:17:40;5.30;;;2.70;;
75550;SDS011;65071;53.082;18.218;2023-09-19T09:20:26;2.40;;;2.10;;
75550;SDS011;65071;53.082;18.218;2023-09-19T09:22:54;3.00;;;2.30;;
75550;SDS011;65071;53.082;18.218;2023-09-19T09:31:22;1.90;;;1.70;;
75550;SDS011;65071;53.082;18.218;2023-09-19T09:33:53;3.80;;;1.70;;
75550;SDS011;65071;53.082;18.218;2023-09-19T09:39:00;2.50;;;1.60;;
75550;SDS011;65071;53.082;18.218;2023-09-19T09:41:42;2.10;;;1.70;;
75550;SDS011;65071;53.082;18.218;2023-09-19T09:44:12;2.00;;;1.70;;
75550;SDS011;65071;53.082;18.218;2023-09-19T09:46:44;1.90;;;1.70;;
75550;SDS011;65071;53.082;18.218;2023-09-19T09:49:34;2.90;;;1.50;;
75550;SDS011;65071;53.082;18.218;2023-09-19T09:52:02;3.20;;;1.70;;
75550;SDS011;65071;53.082;18.218;2023-09-19T09:54:57;1.80;;;1.70;;
75550;SDS011;65071;53.082;18.218;2023-09-19T09:57:26;4.30;;;1.80;;
75550;SDS011;65071;53.082;18.218;2023-09-19T09:59:53;2.30;;;1.30;;
75550;SDS011;65071;53.082;18.218;2023-09-19T10:02:42;2.80;;;1.60;;
75550;SDS011;65071;53.082;18.218;2023-09-19T10:05:18;2.30;;;1.40;;
75550;SDS011;65071;53.082;18.218;2023-09-19T10:08:10;2.90;;;1.60;;
75550;SDS011;65071;53.082;18.218;2023-09-19T10:10:39;2.20;;;1.90;;
75550;SDS011;65071;53.082;18.218;2023-09-19T10:13:12;2.80;;;2.00;;
75550;SDS011;65071;53.082;18.218;2023-09-19T10:15:42;3.90;;;2.00;;
75550;SDS011;65071;53.082;18.218;2023-09-19T10:18:20;6.80;;;1.80;;
75550;SDS011;65071;53.082;18.218;2023-09-19T10:20:49;2.20;;;1.60;;
75550;SDS011;65071;53.082;18.218;2023-09-19T10:23:17;2.70;;;1.30;;
75550;SDS011;65071;53.082;18.218;2023-09-19T10:25:53;3.40;;;1.70;;
75550;SDS011;65071;53.082;18.218;2023-09-19T10:28:20;3.20;;;1.50;;
75550;SDS011;65071;53.082;18.218;2023-09-19T10:30:51;2.40;;;1.80;;
75550;SDS011;65071;53.082;18.218;2023-09-19T10:33:19;2.00;;;1.40;;
75550;SDS011;65071;53.082;18.218;2023-09-19T10:35:48;1.90;;;1.00;;
75550;SDS011;65071;53.082;18.218;2023-09-19T10:38:17;1.50;;;0.90;;
75550;SDS011;65071;53.082;18.218;2023-09-19T10:40:49;3.80;;;1.30;;
75550;SDS011;65071;53.082;18.218;2023-09-19T10:43:21;3.10;;;1.40;;
75550;SDS011;65071;53.082;18.218;2023-09-19T10:45:57;2.60;;;1.10;;
75550;SDS011;65071;53.082;18.218;2023-09-19T10:48:29;4.00;;;1.50;;
75550;SDS011;65071;53.082;18.218;2023-09-19T10:51:06;1.90;;;1.00;;
75550;SDS011;65071;53.082;18.218;2023-09-19T10:56:19;1.80;;;1.00;;
75550;SDS011;65071;53.082;18.218;2023-09-19T11:04:56;2.90;;;1.10;;
75550;SDS011;65071;53.082;18.218;2023-09-19T11:07:05;3.50;;;1.20;;
75550;SDS011;65071;53.082;18.218;2023-09-19T11:09:48;2.30;;;1.10;;
75550;SDS011;65071;53.082;18.218;2023-09-19T11:18:11;2.10;;;1.00;;
75550;SDS011;65071;53.082;18.218;2023-09-19T11:21:52;2.50;;;0.90;;
75550;SDS011;65071;53.082;18.218;2023-09-19T11:27:10;3.10;;;0.90;;
75550;SDS011;65071;53.082;18.218;2023-09-19T11:29:40;2.10;;;1.10;;
75550;SDS011;65071;53.082;18.218;2023-09-19T11:32:07;1.00;;;0.80;;
75550;SDS011;65071;53.082;18.218;2023-09-19T11:34:37;1.40;;;0.90;;
75550;SDS011;65071;53.082;18.218;2023-09-19T11:40:11;2.20;;;1.00;;
75550;SDS011;65071;53.082;18.218;2023-09-19T11:42:44;2.30;;;1.00;;
75550;SDS011;65071;53.082;18.218;2023-09-19T11:46:00;2.30;;;0.90;;
75550;SDS011;65071;53.082;18.218;2023-09-19T11:48:13;2.20;;;0.80;;
75550;SDS011;65071;53.082;18.218;2023-09-19T11:50:44;1.60;;;1.10;;
75550;SDS011;65071;53.082;18.218;2023-09-19T11:53:13;1.80;;;1.00;;
75550;SDS011;65071;53.082;18.218;2023-09-19T11:55:42;2.10;;;1.00;;
75550;SDS011;65071;53.082;18.218;2023-09-19T11:58:11;1.20;;;1.00;;
75550;SDS011;65071;53.082;18.218;2023-09-19T12:00:40;1.60;;;1.00;;
75550;SDS011;65071;53.082;18.218;2023-09-19T12:03:11;1.80;;;1.10;;
75550;SDS011;65071;53.082;18.218;2023-09-19T12:05:40;2.60;;;1.10;;
75550;SDS011;65071;53.082;18.218;2023-09-19T12:08:07;1.10;;;1.00;;
75550;SDS011;65071;53.082;18.218;2023-09-19T12:13:17;2.70;;;1.10;;
75550;SDS011;65071;53.082;18.218;2023-09-19T12:15:45;3.90;;;1.20;;
75550;SDS011;65071;53.082;18.218;2023-09-19T12:18:26;1.70;;;1.20;;
75550;SDS011;65071;53.082;18.218;2023-09-19T12:20:54;2.30;;;1.00;;
75550;SDS011;65071;53.082;18.218;2023-09-19T12:23:21;3.60;;;1.20;;
75550;SDS011;65071;53.082;18.218;2023-09-19T12:25:47;3.60;;;1.00;;
75550;SDS011;65071;53.082;18.218;2023-09-19T12:28:14;2.10;;;1.00;;
75550;SDS011;65071;53.082;18.218;2023-09-19T12:30:43;2.90;;;1.20;;
75550;SDS011;65071;53.082;18.218;2023-09-19T12:33:16;1.80;;;1.20;;
75550;SDS011;65071;53.082;18.218;2023-09-19T12:35:51;1.30;;;1.00;;
75550;SDS011;65071;53.082;18.218;2023-09-19T12:40:51;2.60;;;1.10;;
75550;SDS011;65071;53.082;18.218;2023-09-19T12:43:18;3.20;;;1.20;;
75550;SDS011;65071;53.082;18.218;2023-09-19T12:45:45;1.60;;;0.70;;
75550;SDS011;65071;53.082;18.218;2023-09-19T12:48:17;1.80;;;1.00;;
75550;SDS011;65071;53.082;18.218;2023-09-19T12:50:59;1.20;;;0.80;;
75550;SDS011;65071;53.082;18.218;2023-09-19T12:53:32;1.40;;;0.90;;
75550;SDS011;65071;53.082;18.218;2023-09-19T12:56:10;3.70;;;1.10;;
75550;SDS011;65071;53.082;18.218;2023-09-19T13:01:23;2.60;;;1.00;;
75550;SDS011;65071;53.082;18.218;2023-09-19T13:10:04;2.20;;;1.00;;
75550;SDS011;65071;53.082;18.218;2023-09-19T13:12:36;1.90;;;0.80;;
75550;SDS011;65071;53.082;18.218;2023-09-19T13:15:07;2.70;;;1.00;;
75550;SDS011;65071;53.082;18.218;2023-09-19T13:17:46;1.90;;;1.00;;
75550;SDS011;65071;53.082;18.218;2023-09-19T13:22:58;2.10;;;1.10;;
75550;SDS011;65071;53.082;18.218;2023-09-19T13:25:25;1.60;;;1.20;;
75550;SDS011;65071;53.082;18.218;2023-09-19T13:27:54;2.10;;;1.00;;
75550;SDS011;65071;53.082;18.218;2023-09-19T13:30:24;2.20;;;1.10;;
75550;SDS011;65071;53.082;18.218;2023-09-19T13:32:52;2.50;;;1.20;;
75550;SDS011;65071;53.082;18.218;2023-09-19T13:35:30;1.90;;;0.90;;
75550;SDS011;65071;53.082;18.218;2023-09-19T13:37:56;1.60;;;1.10;;
75550;SDS011;65071;53.082;18.218;2023-09-19T13:40:22;2.30;;;1.20;;
75550;SDS011;65071;53.082;18.218;2023-09-19T13:42:48;2.10;;;1.00;;
75550;SDS011;65071;53.082;18.218;2023-09-19T13:45:19;1.80;;;1.30;;
75550;SDS011;65071;53.082;18.218;2023-09-19T13:50:14;1.20;;;0.90;;
75550;SDS011;65071;53.082;18.218;2023-09-19T13:52:40;2.20;;;1.20;;
75550;SDS011;65071;53.082;18.218;2023-09-19T13:55:07;1.60;;;1.10;;
75550;SDS011;65071;53.082;18.218;2023-09-19T13:57:33;2.80;;;1.00;;
75550;SDS011;65071;53.082;18.218;2023-09-19T14:00:00;2.40;;;1.10;;
75550;SDS011;65071;53.082;18.218;2023-09-19T14:02:27;2.10;;;1.40;;
75550;SDS011;65071;53.082;18.218;2023-09-19T14:04:53;2.40;;;1.30;;
75550;SDS011;65071;53.082;18.218;2023-09-19T14:07:20;1.80;;;1.10;;
75550;SDS011;65071;53.082;18.218;2023-09-19T14:09:47;3.10;;;1.40;;
75550;SDS011;65071;53.082;18.218;2023-09-19T14:12:13;1.80;;;1.30;;
75550;SDS011;65071;53.082;18.218;2023-09-19T14:14:40;3.50;;;1.50;;
75550;SDS011;65071;53.082;18.218;2023-09-19T14:17:08;2.70;;;1.10;;
75550;SDS011;65071;53.082;18.218;2023-09-19T14:19:35;3.00;;;1.60;;
75550;SDS011;65071;53.082;18.218;2023-09-19T14:22:03;3.20;;;1.20;;
75550;SDS011;65071;53.082;18.218;2023-09-19T14:24:33;2.60;;;1.30;;
75550;SDS011;65071;53.082;18.218;2023-09-19T14:27:00;2.80;;;1.30;;
75550;SDS011;65071;53.082;18.218;2023-09-19T14:29:27;2.30;;;1.20;;
75550;SDS011;65071;53.082;18.218;2023-09-19T14:31:54;1.90;;;1.40;;
75550;SDS011;65071;53.082;18.218;2023-09-19T14:34:21;3.30;;;1.40;;
75550;SDS011;65071;53.082;18.218;2023-09-19T14:36:47;3.20;;;1.50;;
75550;SDS011;65071;53.082;18.218;2023-09-19T14:39:14;3.60;;;1.60;;
75550;SDS011;65071;53.082;18.218;2023-09-19T14:41:41;2.10;;;1.20;;
75550;SDS011;65071;53.082;18.218;2023-09-19T14:44:07;3.50;;;1.30;;
75550;SDS011;65071;53.082;18.218;2023-09-19T14:46:35;2.10;;;1.30;;
75550;SDS011;65071;53.082;18.218;2023-09-19T14:49:02;4.20;;;1.50;;
75550;SDS011;65071;53.082;18.218;2023-09-19T14:51:30;2.20;;;1.20;;
75550;SDS011;65071;53.082;18.218;2023-09-19T14:54:00;3.40;;;1.30;;
75550;SDS011;65071;53.082;18.218;2023-09-19T14:56:28;2.10;;;1.30;;
75550;SDS011;65071;53.082;18.218;2023-09-19T14:58:56;2.70;;;1.40;;
75550;SDS011;65071;53.082;18.218;2023-09-19T15:01:22;2.60;;;1.60;;
75550;SDS011;65071;53.082;18.218;2023-09-19T15:03:49;2.30;;;1.40;;
75550;SDS011;65071;53.082;18.218;2023-09-19T15:06:16;3.00;;;1.30;;
75550;SDS011;65071;53.082;18.218;2023-09-19T15:08:46;1.90;;;1.70;;
75550;SDS011;65071;53.082;18.218;2023-09-19T15:11:14;4.20;;;1.50;;
75550;SDS011;65071;53.082;18.218;2023-09-19T15:13:43;4.60;;;1.60;;
75550;SDS011;65071;53.082;18.218;2023-09-19T15:16:11;2.30;;;1.60;;
75550;SDS011;65071;53.082;18.218;2023-09-19T15:18:38;2.70;;;1.50;;
75550;SDS011;65071;53.082;18.218;2023-09-19T15:21:07;4.60;;;2.40;;
75550;SDS011;65071;53.082;18.218;2023-09-19T15:23:36;3.60;;;2.00;;
75550;SDS011;65071;53.082;18.218;2023-09-19T15:26:04;3.60;;;1.60;;
75550;SDS011;65071;53.082;18.218;2023-09-19T15:28:31;4.30;;;1.90;;
75550;SDS011;65071;53.082;18.218;2023-09-19T15:31:06;2.60;;;1.70;;
75550;SDS011;65071;53.082;18.218;2023-09-19T15:33:34;4.10;;;1.80;;
75550;SDS011;65071;53.082;18.218;2023-09-19T15:36:01;2.30;;;1.70;;
75550;SDS011;65071;53.082;18.218;2023-09-19T15:38:32;3.60;;;1.60;;
75550;SDS011;65071;53.082;18.218;2023-09-19T15:41:19;2.90;;;1.90;;
75550;SDS011;65071;53.082;18.218;2023-09-19T15:43:46;4.00;;;1.70;;
75550;SDS011;65071;53.082;18.218;2023-09-19T15:46:13;2.60;;;1.40;;
75550;SDS011;65071;53.082;18.218;2023-09-19T15:48:41;2.50;;;1.70;;
75550;SDS011;65071;53.082;18.218;2023-09-19T15:51:08;2.60;;;1.70;;
75550;SDS011;65071;53.082;18.218;2023-09-19T15:56:12;2.40;;;1.70;;
75550;SDS011;65071;53.082;18.218;2023-09-19T15:58:45;4.00;;;1.90;;
75550;SDS011;65071;53.082;18.218;2023-09-19T16:01:12;2.80;;;1.80;;